Startpagina
METAR-TAF:

METAR-TAF

Vliegvelden :

Elsenborn

Bütgenbach, België

breedte: 50-28N, lengte: 006-11E, hoogte: 564 m

Actueel weer

Dit bericht is 49 minuten geleden gemaakt, om 06:55 UTC
Wind 1 kt uit variabele richting
Temperatuur -2°C
Vochtigheid 100%
Druk 1007 hPa
Zicht: 2200 m
Geheel bewolkt op 200 ft
nevel

METAR: EBLB 210655Z VRB01KT 2200 BR OVC002 M02/M02 Q1007 AMB YLO TEMPO AMB

Tijdstip: 08:44 (07:44 UTC)

Verwachting

Dit bericht is 16 uur en het 3 minuten geleden gemaakt, om 15:41 UTC
Verwachting geldig van 20 om 19 UTC tot 21 om 07 UTC
Wind 6 kt uit het oostzuidoosten
Zicht 10 km of meer
Verspreide wolken op 1200 ft
Verspreide wolken op 25000 ft
Tijdelijke
van 20 om 19 UTC tot 21 om 04 UTC
Gebroken wolken op 600 ft
Wijzigt naar
van 21 om 02 UTC tot 21 om 04 UTC
Zicht: 7000 m
Weinig wolken op 800 ft

TAF: EBLB 201541Z 2019/2107 11006KT 9999 SCT012 SCT250 TEMPO 2019/2104 BKN006 BECMG 2102/2104 7000 FEW008

Waarnemingen en weersverwachtingen van meer dan 4000 vliegvelden (METAR en TAF).

De beschikbare stations zijn de gele en rode punten op de kaart.

Ga met uw muis naar het station om de naam te zien.

Klik dan om waarnemingen en weersverwachtingen te zien.

kaart wijzigen: klik op de groene knoppen met een zwart kruis om in te zoomen, op de groene knop met een streepje om uit te zoomen of op de groene pijlen voor aangrenzende kaarten.


METAR-TAF: